CÀNOVES I SAMALÚS





Hora UTC 06:10
Temperatura 5.4 ºC
Humitat 92.4 %
Pressió 1014.6 hPa
Pluja 0.0 mm
Velocitat vent 5.0 km/h
Direcció vent NW
Radiació solar 0.1 W/m²

Dades diàries 2022-12-01



Hora UTC (hivern +1h; estiu +2h)
Temperatura (ºC) Humitat (%) Pressió (hPa) Velocitat vent (km/h) Precipitació (mm) Radiació solar (W/m²)
Hora UTC Aire Humitat Pressió Vel. Dir. Vel. Max Dir. Intent. màx 5 min. Rad. Sol.
00:05 6.1 93.6 1015.2 1.1 N 1.1 NNE 0.0 0.1
00:10 6.1 93.6 1015.2 4.6 N 10.6 N 0.0 0.1
00:15 6.1 93.3 1015.2 4.1 NNW 9.2 NNW 0.0 0.1
00:20 6.1 92.5 1015.1 3.1 NNW 5.3 NNW 0.0 0.1
00:25 6.0 91.8 1015.0 2.1 NNW 6.4 NW 0.0 0.1
00:30 6.0 91.5 1015.0 4.7 NW 7.1 NW 0.0 0.1
00:35 6.0 91.0 1014.9 3.1 NW 5.6 NNW 0.0 0.1
00:40 6.0 90.8 1014.9 3.3 NNW 7.1 NNW 0.0 0.1
00:45 5.9 90.7 1014.8 4.6 NNW 7.8 N 0.0 0.1
00:50 5.8 90.9 1014.8 4.0 NNW 7.8 NNW 0.0 0.1
00:55 5.7 91.0 1014.8 4.2 NNW 7.4 NW 0.0 0.1
01:00 5.7 91.1 1014.8 3.3 NNW 4.9 NNW 0.0 0.1
01:05 5.6 91.3 1014.8 3.5 NW 4.9 NW 0.0 0.1
01:10 5.6 91.7 1014.7 4.5 NW 6.7 NNW 0.0 0.1
01:15 5.5 91.7 1014.8 4.2 NW 6.4 NNW 0.0 0.1
01:20 5.4 91.8 1014.8 2.8 N 7.4 NNE 0.0 0.1
01:25 5.3 91.8 1014.8 1.0 NNW 2.8 NNW 0.0 0.1
01:30 5.2 92.1 1014.7 2.5 NNW 4.6 NNW 0.0 0.1
01:35 5.0 91.9 1014.8 2.6 WNW 4.2 NW 0.0 0.1
01:40 5.0 92.7 1014.8 2.7 NNW 4.6 NNW 0.0 0.1
01:45 4.9 92.7 1014.8 3.1 NNW 4.6 NNW 0.0 0.1
01:50 4.8 93.0 1014.8 4.6 NNW 5.6 NNW 0.0 0.1
01:55 4.7 93.4 1014.8 4.8 NNW 6.7 NNW 0.0 0.1
02:00 4.7 93.9 1014.8 3.7 NW 4.9 NW 0.0 0.1
02:05 4.8 94.0 1014.9 5.0 NW 7.4 NW 0.0 0.1
02:10 4.8 94.0 1014.8 3.7 NNW 4.9 NW 0.0 0.1
02:15 4.8 93.7 1014.8 4.9 NNW 6.4 NNW 0.0 0.1
02:20 4.8 93.7 1014.7 4.5 NNW 6.0 NNW 0.0 0.1
02:25 4.7 93.7 1014.7 4.4 NNW 6.4 N 0.0 0.1
02:30 4.6 93.3 1014.7 4.2 NNW 6.4 NNW 0.0 0.1
02:35 4.5 93.6 1014.7 5.1 NNW 8.1 NNW 0.0 0.1
02:40 4.4 93.6 1014.6 4.5 NNW 8.1 N 0.0 0.1
02:45 4.4 94.1 1014.6 4.6 NNW 10.2 N 0.0 0.1
02:50 4.4 93.9 1014.6 2.7 N 6.0 N 0.0 0.1
02:55 4.3 93.7 1014.7 0.7 NW 2.8 NW 0.0 0.1
03:00 4.3 94.1 1014.7 1.9 NW 4.6 NNE 0.0 0.1
03:05 4.3 94.3 1014.6 1.1 NW 5.3 NNE 0.0 0.1
03:10 4.4 94.5 1014.6 0.4 WNW 2.5 NW 0.0 0.1
03:15 4.4 94.6 1014.6 0.4 NW 2.5 NNW 0.0 0.1
03:20 4.4 94.6 1014.6 1.6 NNW 3.9 NNW 0.0 0.1
03:25 4.5 94.7 1014.6 3.1 NNW 4.6 NNW 0.0 0.1
03:30 4.5 94.8 1014.6 4.3 NNW 9.2 NNW 0.0 0.1
03:35 4.7 95.0 1014.6 4.6 NNW 9.2 N 0.0 0.1
03:40 5.0 94.8 1014.6 4.8 N 8.5 N 0.0 0.1
03:45 5.2 93.9 1014.5 4.2 NNW 9.2 NNW 0.0 0.1
03:50 5.4 93.2 1014.5 3.3 NNE 6.4 N 0.0 0.1
03:55 5.7 92.0 1014.5 2.9 N 7.1 N 0.0 0.1
04:00 5.8 90.8 1014.5 5.6 N 12.7 NNW 0.0 0.1
04:05 6.2 88.5 1014.5 6.0 NNW 11.3 NNW 0.0 0.1
04:10 6.4 87.4 1014.5 2.8 NNW 7.8 N 0.0 0.1
04:15 6.5 86.8 1014.5 2.8 N 5.6 0.0 0.1
04:20 6.6 86.2 1014.4 3.6 N 6.7 NNW 0.0 0.1
04:25 6.7 85.7 1014.4 4.4 N 8.1 N 0.0 0.1
04:30 6.8 85.2 1014.4 2.7 N 7.4 N 0.0 0.1
04:35 6.9 84.8 1014.4 1.4 NNW 3.9 0.0 0.1
04:40 6.9 84.6 1014.4 0.7 NW 2.5 WNW 0.0 0.1
04:45 6.8 85.0 1014.3 1.7 NW 3.2 N 0.0 0.1
04:50 6.7 85.7 1014.3 1.7 N 3.2 N 0.0 0.1
04:55 6.7 86.2 1014.4 1.3 NNW 2.5 N 0.0 0.1
05:00 6.6 86.7 1014.3 1.4 W 2.8 W 0.0 0.1
05:05 6.4 87.1 1014.3 1.6 WNW 4.2 NNW 0.0 0.1
05:10 6.3 87.5 1014.3 0.7 WNW 3.2 WNW 0.0 0.1
05:15 6.2 87.8 1014.3 2.5 NNW 4.2 NNW 0.0 0.1
05:20 5.9 88.4 1014.3 3.1 NNW 3.9 NNW 0.0 0.1
05:25 5.6 89.2 1014.3 3.1 NNW 4.2 N 0.0 0.1
05:30 5.4 89.7 1014.3 3.1 N 4.2 N 0.0 0.1
05:35 5.2 90.5 1014.3 3.9 NNW 4.9 NNW 0.0 0.1
05:40 5.1 91.2 1014.3 3.6 NNW 4.9 N 0.0 0.1
05:45 4.9 91.6 1014.4 4.8 NNW 6.4 NNW 0.0 0.1
05:50 4.9 92.5 1014.5 4.2 NW 5.6 NW 0.0 0.1
05:55 5.0 92.9 1014.5 4.3 NW 5.6 NW 0.0 0.1
06:00 5.1 92.8 1014.6 4.1 NNW 6.4 N 0.0 0.1
06:05 5.2 92.7 1014.6 4.8 NW 6.4 NNW 0.0 0.1
06:10 5.4 92.4 1014.6 5.0 NW 6.7 NW 0.0 0.1
Màxima 6.9 95.0 1015.2 6.0 NNW 12.7 NNW 0.0 0.1
Mínima 4.2 84.6 1014.3
Total 0.0